Time;durP1;ratioP1;P1;durP2;ratioP2;P2;SDS_P1;SDS_P2;PMS_P1;PMS_P2;Temp;Humidity;BMP_temperature;BMP_pressure;BME280_temperature;BME280_humidity;BME280_pressure;Samples;Min_cycle;Max_cycle;Signal;HPM_P1;HPM_P2
2021/05/29 00:02:14;;;;;;;9.30;3.15;;;12.30;99.90;;;;;;4973746;28;20034;-74
2021/05/29 00:04:40;;;;;;;5.93;2.90;;;12.30;99.90;;;;;;4973518;28;20073;-74
2021/05/29 00:07:05;;;;;;;4.03;2.95;;;12.30;99.90;;;;;;4973123;28;20051;-75
2021/05/29 00:09:31;;;;;;;3.92;2.95;;;12.30;99.90;;;;;;4972314;28;20050;-75
2021/05/29 00:11:58;;;;;;;5.60;3.00;;;12.20;99.90;;;;;;4971825;28;20097;-75
2021/05/29 00:14:24;;;;;;;3.63;2.75;;;12.20;99.90;;;;;;4972454;28;20039;-75
2021/05/29 00:16:49;;;;;;;5.53;2.83;;;12.20;99.90;;;;;;4973336;28;20031;-74
2021/05/29 00:19:15;;;;;;;6.38;3.13;;;12.20;99.90;;;;;;4973082;28;20486;-74
2021/05/29 00:21:41;;;;;;;2.95;2.00;;;12.10;99.90;;;;;;4973401;28;20110;-74
2021/05/29 00:24:07;;;;;;;4.30;2.65;;;12.20;99.90;;;;;;4971611;28;20481;-74
2021/05/29 00:26:33;;;;;;;3.60;2.60;;;12.20;99.90;;;;;;4973135;28;20042;-74
2021/05/29 00:28:58;;;;;;;4.80;2.75;;;12.20;99.90;;;;;;4972254;28;20673;-75
2021/05/29 00:31:24;;;;;;;6.18;2.50;;;12.20;99.90;;;;;;4972633;28;20444;-74
2021/05/29 00:33:50;;;;;;;2.65;2.45;;;12.10;99.90;;;;;;4972068;28;20030;-74
2021/05/29 00:36:15;;;;;;;4.05;2.67;;;12.10;99.90;;;;;;5003988;28;20042;-74
2021/05/29 00:38:47;;;;;;;2.85;2.55;;;12.10;99.90;;;;;;4973018;28;20025;-74
2021/05/29 00:41:14;;;;;;;6.53;2.70;;;12.00;99.90;;;;;;5003653;28;20117;-75
2021/05/29 00:43:39;;;;;;;2.72;2.53;;;11.90;99.90;;;;;;4972723;28;20055;-75
2021/05/29 00:46:06;;;;;;;4.93;2.80;;;11.90;99.90;;;;;;4972932;28;20050;-74
2021/05/29 00:48:33;;;;;;;2.90;2.70;;;11.90;99.90;;;;;;4972952;28;20030;-75
2021/05/29 00:50:59;;;;;;;3.20;2.65;;;11.90;99.90;;;;;;4971658;28;20073;-74
2021/05/29 00:53:30;;;;;;;4.93;2.60;;;11.90;99.90;;;;;;4972867;28;20035;-74
2021/05/29 00:55:57;;;;;;;3.58;3.10;;;11.80;99.90;;;;;;4972496;28;20038;-74
2021/05/29 00:58:24;;;;;;;7.40;3.10;;;11.80;99.90;;;;;;4973719;28;20034;-74
2021/05/29 01:00:50;;;;;;;7.78;3.30;;;11.80;99.90;;;;;;4974031;28;20031;-74
2021/05/29 01:03:16;;;;;;;5.68;3.08;;;11.80;99.90;;;;;;4973124;28;20054;-74
2021/05/29 01:05:43;;;;;;;4.18;3.72;;;11.80;99.90;;;;;;4970730;28;20019;-75
2021/05/29 01:08:09;;;;;;;6.15;3.00;;;11.80;99.90;;;;;;4971178;28;20031;-75
2021/05/29 01:10:36;;;;;;;3.67;2.53;;;11.80;99.90;;;;;;4972413;28;20026;-74
2021/05/29 01:13:05;;;;;;;4.07;2.83;;;11.80;99.90;;;;;;4972955;28;20398;-74
2021/05/29 01:15:44;;;;;;;3.60;3.00;;;11.80;99.90;;;;;;4972989;28;20034;-74
2021/05/29 01:18:12;;;;;;;3.78;2.50;;;11.70;99.90;;;;;;4972245;28;20026;-74
2021/05/29 01:20:39;;;;;;;2.92;2.63;;;11.70;99.90;;;;;;4973770;28;20169;-74
2021/05/29 01:23:05;;;;;;;3.22;2.92;;;11.70;99.90;;;;;;4976333;28;20035;-74
2021/05/29 01:25:35;;;;;;;3.40;2.88;;;11.70;99.90;;;;;;4975537;28;20046;-74
2021/05/29 01:28:12;;;;;;;3.05;2.80;;;11.80;99.90;;;;;;4976214;28;20078;-74
2021/05/29 01:30:43;;;;;;;3.95;2.92;;;11.80;99.90;;;;;;4975455;28;20054;-74
2021/05/29 01:33:11;;;;;;;7.43;3.47;;;11.80;99.90;;;;;;4976179;28;20085;-74
2021/05/29 01:35:37;;;;;;;3.05;2.75;;;11.70;99.90;;;;;;4974617;28;20035;-74
2021/05/29 01:38:03;;;;;;;4.40;3.15;;;11.70;99.90;;;;;;4975787;28;20034;-73
2021/05/29 01:40:29;;;;;;;3.28;2.83;;;11.70;99.90;;;;;;4973914;28;20509;-74
2021/05/29 01:42:57;;;;;;;4.50;3.10;;;11.60;99.90;;;;;;4975754;28;20062;-74
2021/05/29 01:45:26;;;;;;;3.63;3.10;;;11.60;99.90;;;;;;4975520;28;20035;-74
2021/05/29 01:47:52;;;;;;;3.55;3.25;;;11.50;99.90;;;;;;4975630;28;20035;-74
2021/05/29 01:50:18;;;;;;;3.10;2.90;;;11.60;99.90;;;;;;4974762;28;20027;-74
2021/05/29 01:52:49;;;;;;;3.30;3.00;;;11.50;99.90;;;;;;4975439;28;20034;-73
2021/05/29 01:55:17;;;;;;;4.97;2.95;;;11.60;99.90;;;;;;4975148;28;20093;-73
2021/05/29 01:57:43;;;;;;;5.50;3.22;;;11.60;99.90;;;;;;4975798;28;20440;-73
2021/05/29 02:00:10;;;;;;;3.65;3.17;;;11.60;99.90;;;;;;4974817;28;20027;-73
2021/05/29 02:02:35;;;;;;;2.97;2.78;;;11.60;99.90;;;;;;4975468;28;20038;-74
2021/05/29 02:05:13;;;;;;;3.72;3.05;;;11.50;99.90;;;;;;4975389;28;20030;-74
2021/05/29 02:07:39;;;;;;;5.70;3.53;;;11.60;99.90;;;;;;4974768;28;20106;-74
2021/05/29 02:10:05;;;;;;;3.60;3.28;;;11.50;99.90;;;;;;4974697;28;20110;-74
2021/05/29 02:12:46;;;;;;;4.63;3.22;;;11.50;99.90;;;;;;4975229;28;20030;-74
2021/05/29 02:15:18;;;;;;;4.93;3.13;;;11.50;99.90;;;;;;4975268;28;20038;-74
2021/05/29 02:17:45;;;;;;;3.47;3.10;;;11.50;99.90;;;;;;4974918;28;20077;-74
2021/05/29 02:20:12;;;;;;;6.50;3.55;;;11.40;99.90;;;;;;4973734;28;20073;-74
2021/05/29 02:22:38;;;;;;;3.50;3.20;;;11.40;99.90;;;;;;4986343;28;20034;-74
2021/05/29 02:25:05;;;;;;;3.30;3.10;;;11.40;99.90;;;;;;4995761;28;20034;-73
2021/05/29 02:27:31;;;;;;;3.55;3.25;;;11.40;99.90;;;;;;4986713;28;20050;-74
2021/05/29 02:29:56;;;;;;;3.05;2.75;;;11.30;99.90;;;;;;4987922;28;20034;-73
2021/05/29 02:32:22;;;;;;;3.63;3.05;;;11.30;99.90;;;;;;4982791;28;20057;-75
2021/05/29 02:34:48;;;;;;;3.95;3.08;;;11.30;99.90;;;;;;4979874;28;20036;-74
2021/05/29 02:37:14;;;;;;;6.20;3.35;;;11.30;99.90;;;;;;4979422;28;20173;-75
2021/05/29 02:39:40;;;;;;;4.30;3.20;;;11.30;99.90;;;;;;4976557;28;20038;-74
2021/05/29 02:42:06;;;;;;;7.78;2.95;;;11.40;99.90;;;;;;4973706;28;20053;-73
2021/05/29 02:44:32;;;;;;;3.35;3.05;;;11.40;99.90;;;;;;4974010;28;20023;-74
2021/05/29 02:46:58;;;;;;;3.30;3.03;;;11.30;99.90;;;;;;4974699;28;20388;-74
2021/05/29 02:49:24;;;;;;;4.68;2.95;;;11.30;99.90;;;;;;4972835;28;20497;-74
2021/05/29 02:51:50;;;;;;;4.85;3.30;;;11.30;99.90;;;;;;4973762;28;20062;-74
2021/05/29 02:54:16;;;;;;;6.03;3.20;;;11.30;99.90;;;;;;4974193;28;20030;-74
2021/05/29 02:56:41;;;;;;;5.18;3.40;;;11.30;99.90;;;;;;4974473;28;20019;-74
2021/05/29 02:59:07;;;;;;;4.30;3.25;;;11.40;99.90;;;;;;4974627;28;20035;-74
2021/05/29 03:01:33;;;;;;;4.25;3.47;;;11.30;99.90;;;;;;4973189;28;20062;-74
2021/05/29 03:03:58;;;;;;;9.55;3.70;;;11.30;99.90;;;;;;4973432;28;20031;-75
2021/05/29 03:06:24;;;;;;;4.13;3.20;;;11.20;99.90;;;;;;4974101;28;20023;-75
2021/05/29 03:08:50;;;;;;;5.30;4.18;;;11.20;99.90;;;;;;4973749;28;20413;-74
2021/05/29 03:11:15;;;;;;;5.82;3.35;;;11.30;99.90;;;;;;4973610;28;20520;-74
2021/05/29 03:13:41;;;;;;;4.18;3.42;;;11.30;99.90;;;;;;4973164;28;20258;-74
2021/05/29 03:16:07;;;;;;;3.75;3.45;;;11.20;99.90;;;;;;4974573;28;20019;-74
2021/05/29 03:18:32;;;;;;;5.72;3.38;;;11.20;99.90;;;;;;4983320;28;20034;-74
2021/05/29 03:20:59;;;;;;;5.60;3.33;;;11.20;99.90;;;;;;4991066;28;20027;-74
2021/05/29 03:23:25;;;;;;;4.28;3.35;;;11.20;99.90;;;;;;4981621;28;20472;-75
2021/05/29 03:25:51;;;;;;;6.00;3.80;;;11.20;99.90;;;;;;4973920;28;20019;-74
2021/05/29 03:28:17;;;;;;;4.03;3.72;;;11.20;99.90;;;;;;4974258;28;20031;-74
2021/05/29 03:30:43;;;;;;;4.68;4.22;;;11.20;99.90;;;;;;4973305;28;20049;-74
2021/05/29 03:33:13;;;;;;;3.75;3.42;;;11.20;99.90;;;;;;4973971;28;20023;-74
2021/05/29 03:35:39;;;;;;;6.03;3.92;;;11.10;99.90;;;;;;4973103;28;20037;-74
2021/05/29 03:38:05;;;;;;;3.72;3.42;;;11.10;99.90;;;;;;5005211;28;20058;-74
2021/05/29 03:40:31;;;;;;;3.92;3.63;;;11.20;99.90;;;;;;4973002;28;20058;-74
2021/05/29 03:42:56;;;;;;;3.83;3.42;;;11.20;99.90;;;;;;4972863;28;20026;-75
2021/05/29 03:45:22;;;;;;;5.30;4.10;;;11.20;99.90;;;;;;4973620;28;20030;-75
2021/05/29 03:47:49;;;;;;;4.32;3.92;;;11.20;99.90;;;;;;4977738;28;20023;-74
2021/05/29 03:50:18;;;;;;;5.70;3.72;;;11.20;99.90;;;;;;4977092;28;20130;-74
2021/05/29 03:52:44;;;;;;;6.90;3.95;;;11.30;99.90;;;;;;4978935;28;20507;-75
2021/05/29 03:55:12;;;;;;;3.72;3.38;;;11.30;99.90;;;;;;4977690;28;20035;-74
2021/05/29 03:57:38;;;;;;;4.28;3.88;;;11.30;99.90;;;;;;4973494;28;20030;-75
2021/05/29 04:00:06;;;;;;;4.57;3.70;;;11.30;99.90;;;;;;4974979;28;20026;-76
2021/05/29 04:02:32;;;;;;;5.13;3.47;;;11.30;99.90;;;;;;4977712;28;20053;-76
2021/05/29 04:04:57;;;;;;;5.55;3.47;;;11.30;99.90;;;;;;4976596;28;20338;-75
2021/05/29 04:07:23;;;;;;;4.07;3.67;;;11.30;99.90;;;;;;4973099;28;20512;-75
2021/05/29 04:09:48;;;;;;;4.53;4.13;;;11.30;99.90;;;;;;4972619;28;20070;-75
2021/05/29 04:12:14;;;;;;;4.38;3.83;;;11.30;99.90;;;;;;4971818;28;20061;-73
2021/05/29 04:14:40;;;;;;;4.57;3.55;;;11.30;99.90;;;;;;4972715;28;20112;-74
2021/05/29 04:17:06;;;;;;;3.90;3.53;;;11.30;99.90;;;;;;4972222;28;20037;-75
2021/05/29 04:19:31;;;;;;;5.20;3.92;;;11.30;99.90;;;;;;4972272;28;20015;-75
2021/05/29 04:21:57;;;;;;;5.90;3.60;;;11.40;99.90;;;;;;4972664;28;20035;-74
2021/05/29 04:24:23;;;;;;;6.90;3.67;;;11.30;99.90;;;;;;4971854;28;20031;-75
2021/05/29 04:26:48;;;;;;;5.32;4.03;;;11.40;99.90;;;;;;4972317;28;20034;-74
2021/05/29 04:29:14;;;;;;;4.28;3.88;;;11.40;99.90;;;;;;4973131;28;20035;-77
2021/05/29 04:31:39;;;;;;;3.70;3.35;;;11.50;99.90;;;;;;4971410;28;20026;-76
2021/05/29 04:34:05;;;;;;;3.83;3.33;;;11.30;99.90;;;;;;4972824;28;20169;-75
2021/05/29 04:36:31;;;;;;;3.65;3.40;;;11.40;99.90;;;;;;4972516;28;20165;-75
2021/05/29 04:38:56;;;;;;;3.72;3.00;;;11.50;99.90;;;;;;4971803;28;20180;-75
2021/05/29 04:41:22;;;;;;;4.07;3.35;;;11.50;99.90;;;;;;4967033;28;20038;-74
2021/05/29 04:43:48;;;;;;;4.22;3.20;;;11.50;99.90;;;;;;4970991;28;20027;-75
2021/05/29 04:46:14;;;;;;;3.38;3.08;;;11.60;99.90;;;;;;4972135;28;20509;-76
2021/05/29 04:48:39;;;;;;;3.30;2.50;;;11.50;99.90;;;;;;4972297;28;20341;-76
2021/05/29 04:51:12;;;;;;;2.92;2.72;;;11.50;99.90;;;;;;4971525;28;20034;-74
2021/05/29 04:53:42;;;;;;;2.90;2.70;;;11.40;99.90;;;;;;4973645;28;20054;-74
2021/05/29 04:56:08;;;;;;;2.80;2.60;;;11.40;99.90;;;;;;4976486;28;20027;-73
2021/05/29 04:58:36;;;;;;;2.85;2.63;;;11.50;99.90;;;;;;4976397;28;20097;-74
2021/05/29 05:01:02;;;;;;;2.78;2.58;;;11.50;99.90;;;;;;4974401;28;20087;-73
2021/05/29 05:03:28;;;;;;;5.28;2.97;;;11.50;99.90;;;;;;4975830;28;20031;-73
2021/05/29 05:05:53;;;;;;;5.55;2.70;;;11.50;99.90;;;;;;4976358;28;20496;-76
2021/05/29 05:08:19;;;;;;;3.08;2.78;;;11.50;99.90;;;;;;4975312;28;20481;-75
2021/05/29 05:10:45;;;;;;;2.42;2.22;;;11.60;99.90;;;;;;4977561;28;20026;-74
2021/05/29 05:13:10;;;;;;;2.97;2.78;;;11.70;99.90;;;;;;4993148;28;20015;-76
2021/05/29 05:15:36;;;;;;;5.05;2.85;;;11.60;99.90;;;;;;4981442;28;20061;-74
2021/05/29 05:18:03;;;;;;;4.95;3.00;;;11.70;99.90;;;;;;4975517;28;20030;-75
2021/05/29 05:20:29;;;;;;;3.85;3.45;;;11.70;99.90;;;;;;4975935;28;20038;-74
2021/05/29 05:22:54;;;;;;;4.65;3.10;;;11.70;99.90;;;;;;4974756;28;20026;-75
2021/05/29 05:25:20;;;;;;;6.50;3.63;;;11.80;99.90;;;;;;4975169;28;20027;-74
2021/05/29 05:27:46;;;;;;;3.50;3.20;;;11.90;99.90;;;;;;4975957;28;20405;-75
2021/05/29 05:30:14;;;;;;;5.25;3.50;;;11.90;99.90;;;;;;4975332;28;20034;-75
2021/05/29 05:32:42;;;;;;;3.42;3.13;;;11.80;99.90;;;;;;4975971;28;20034;-76
2021/05/29 05:35:10;;;;;;;4.97;3.53;;;11.90;99.90;;;;;;4975721;28;20045;-75
2021/05/29 05:37:36;;;;;;;4.90;3.10;;;12.00;99.90;;;;;;5032031;23;20101;-71
2021/05/29 05:40:04;;;;;;;3.83;3.20;;;12.10;99.90;;;;;;4994029;28;20080;-71
2021/05/29 05:42:30;;;;;;;4.53;3.33;;;12.20;99.90;;;;;;4995066;28;20046;-72
2021/05/29 05:44:55;;;;;;;3.38;3.08;;;12.20;99.90;;;;;;4994330;28;20065;-71
2021/05/29 05:47:21;;;;;;;4.60;3.10;;;12.20;99.90;;;;;;4995338;28;20026;-72
2021/05/29 05:49:47;;;;;;;3.45;2.92;;;12.30;99.90;;;;;;4995039;28;20034;-72
2021/05/29 05:52:12;;;;;;;4.28;2.58;;;12.40;99.90;;;;;;4995813;28;20030;-71
2021/05/29 05:54:38;;;;;;;4.25;2.63;;;12.50;99.90;;;;;;4994301;28;20029;-71
2021/05/29 05:57:04;;;;;;;3.05;2.75;;;12.50;99.90;;;;;;4995651;28;20026;-71
2021/05/29 05:59:29;;;;;;;4.30;3.03;;;12.60;99.90;;;;;;4995133;28;20110;-71
2021/05/29 06:01:55;;;;;;;2.97;2.78;;;12.60;99.90;;;;;;4994639;28;20022;-71
2021/05/29 06:04:21;;;;;;;4.38;2.60;;;12.70;99.90;;;;;;4994448;28;20404;-72
2021/05/29 06:06:47;;;;;;;3.13;2.80;;;12.80;99.90;;;;;;4993882;28;20429;-71
2021/05/29 06:09:13;;;;;;;7.18;2.83;;;12.90;99.90;;;;;;4975979;28;20039;-72
2021/05/29 06:11:39;;;;;;;3.28;2.97;;;12.90;99.90;;;;;;4993748;28;20022;-72
2021/05/29 06:19:22;;;;;;;3.28;2.97;;;13.00;99.90;;;;;;4994420;28;20405;-70
2021/05/29 06:21:50;;;;;;;4.57;3.45;;;13.10;99.90;;;;;;4994209;28;20022;-70
2021/05/29 06:24:20;;;;;;;3.75;3.00;;;13.20;99.90;;;;;;4992981;28;20025;-74
2021/05/29 06:26:47;;;;;;;5.53;3.70;;;13.30;99.90;;;;;;4988247;28;20486;-75
2021/05/29 06:29:13;;;;;;;4.85;2.20;;;13.50;99.90;;;;;;4974946;28;20085;-73
2021/05/29 06:31:39;;;;;;;2.95;2.30;;;13.60;99.90;;;;;;4976273;28;20686;-73
2021/05/29 06:34:05;;;;;;;1.70;1.60;;;13.70;99.90;;;;;;4993737;28;20033;-73
2021/05/29 06:36:31;;;;;;;5.95;1.88;;;13.80;99.90;;;;;;4993470;28;20037;-74
2021/05/29 06:38:57;;;;;;;2.30;2.10;;;13.80;99.90;;;;;;4994336;28;20029;-73
2021/05/29 06:41:23;;;;;;;2.85;1.50;;;13.90;99.90;;;;;;4975361;28;20478;-73
2021/05/29 06:43:50;;;;;;;2.50;1.88;;;14.20;99.90;;;;;;4993097;28;20117;-69
2021/05/29 06:46:17;;;;;;;2.40;1.65;;;14.30;99.90;;;;;;4993696;28;20022;-72
2021/05/29 06:48:43;;;;;;;4.05;1.42;;;14.40;99.90;;;;;;4993750;28;20429;-70
2021/05/29 06:51:13;;;;;;;1.38;1.30;;;14.70;99.90;;;;;;4993609;28;20065;-70
2021/05/29 06:53:45;;;;;;;1.60;1.48;;;15.20;99.90;;;;;;4993809;28;20035;-70
2021/05/29 06:58:55;;;;;;;1.95;1.50;;;16.10;99.90;;;;;;4993467;28;20102;-72
2021/05/29 07:01:23;;;;;;;2.30;1.50;;;15.90;99.90;;;;;;4993081;28;20105;-71
2021/05/29 07:03:50;;;;;;;6.07;1.73;;;15.80;99.90;;;;;;4993542;28;20046;-72
2021/05/29 07:06:17;;;;;;;1.42;1.33;;;15.70;99.90;;;;;;4993663;28;20050;-72
2021/05/29 07:08:43;;;;;;;3.00;1.73;;;15.70;99.90;;;;;;4991707;28;20101;-74
2021/05/29 07:11:08;;;;;;;2.15;1.42;;;15.70;99.90;;;;;;4992400;28;20406;-72
2021/05/29 07:13:34;;;;;;;3.38;1.40;;;15.50;99.90;;;;;;4993285;28;20030;-73
2021/05/29 07:16:01;;;;;;;5.65;1.75;;;15.70;99.90;;;;;;4975512;28;20101;-71
2021/05/29 07:18:32;;;;;;;3.03;1.88;;;15.70;99.90;;;;;;4991871;28;20380;-72
2021/05/29 07:20:58;;;;;;;2.08;1.20;;;15.50;99.90;;;;;;4992689;28;20084;-71
2021/05/29 07:23:24;;;;;;;2.25;1.90;;;15.60;99.90;;;;;;4975587;28;20018;-72
2021/05/29 07:25:49;;;;;;;2.88;1.35;;;15.60;99.90;;;;;;4992880;28;20102;-72
2021/05/29 07:28:16;;;;;;;1.40;1.30;;;15.60;99.90;;;;;;4992584;28;20391;-71
2021/05/29 07:30:42;;;;;;;1.40;1.30;;;15.80;99.90;;;;;;4992392;28;20077;-72
2021/05/29 07:33:08;;;;;;;1.95;1.45;;;15.90;99.90;;;;;;4992947;28;20415;-72
2021/05/29 07:35:34;;;;;;;3.80;1.27;;;16.00;99.90;;;;;;4992769;28;20022;-72
2021/05/29 07:37:59;;;;;;;2.13;1.30;;;16.10;99.90;;;;;;4992432;28;20381;-71
2021/05/29 07:40:26;;;;;;;2.22;1.35;;;16.20;99.90;;;;;;4992183;28;20046;-71
2021/05/29 07:42:52;;;;;;;3.15;1.73;;;16.20;99.90;;;;;;4992597;28;20030;-72
2021/05/29 07:45:18;;;;;;;2.33;1.30;;;16.40;99.90;;;;;;4992808;28;20109;-73
2021/05/29 07:47:43;;;;;;;1.90;1.30;;;16.50;99.90;;;;;;4991629;28;20102;-73
2021/05/29 07:50:10;;;;;;;1.45;1.10;;;16.40;99.90;;;;;;4983422;28;20480;-74
2021/05/29 07:52:36;;;;;;;1.42;1.15;;;16.60;99.90;;;;;;4991912;28;20114;-74
2021/05/29 07:55:04;;;;;;;3.50;1.35;;;16.90;99.90;;;;;;4992016;28;20114;-74
2021/05/29 07:57:32;;;;;;;1.35;1.25;;;16.90;98.80;;;;;;4991226;28;20563;-74
2021/05/29 07:59:58;;;;;;;2.03;1.10;;;16.90;99.00;;;;;;4990813;28;20652;-74
2021/05/29 08:02:24;;;;;;;2.80;1.20;;;16.90;99.60;;;;;;4992392;28;20093;-74
2021/05/29 08:04:50;;;;;;;2.97;1.20;;;17.00;98.40;;;;;;4973304;28;20039;-73
2021/05/29 08:07:16;;;;;;;2.80;1.20;;;17.10;97.90;;;;;;4991762;28;20150;-74
2021/05/29 08:09:41;;;;;;;2.03;1.23;;;17.20;96.20;;;;;;4990692;28;20039;-72
2021/05/29 08:12:08;;;;;;;2.00;1.20;;;17.30;98.40;;;;;;4991788;28;20026;-71
2021/05/29 08:14:34;;;;;;;1.50;1.40;;;17.30;96.20;;;;;;4991764;28;20030;-71
2021/05/29 08:17:00;;;;;;;2.65;1.10;;;17.40;97.00;;;;;;4991110;28;20030;-72
2021/05/29 08:19:26;;;;;;;1.00;1.00;;;17.70;96.80;;;;;;4990863;28;20097;-72
2021/05/29 08:21:51;;;;;;;1.60;1.30;;;17.90;95.40;;;;;;4991761;28;20034;-72
2021/05/29 08:24:17;;;;;;;2.10;1.35;;;18.10;95.20;;;;;;4974748;28;20026;-71
2021/05/29 08:26:45;;;;;;;1.95;1.25;;;18.00;93.70;;;;;;4994332;28;20030;-70
2021/05/29 08:29:14;;;;;;;1.58;1.10;;;18.10;94.10;;;;;;4991181;28;20031;-72
2021/05/29 08:31:42;;;;;;;3.97;1.30;;;18.20;96.00;;;;;;4990970;28;20057;-73
2021/05/29 08:34:09;;;;;;;1.52;1.30;;;18.50;93.30;;;;;;4992281;28;20026;-73
2021/05/29 08:36:35;;;;;;;1.80;1.35;;;18.30;92.80;;;;;;4994567;28;20026;-73
2021/05/29 08:39:01;;;;;;;2.03;1.30;;;18.50;94.50;;;;;;4999139;28;20054;-73
2021/05/29 08:41:27;;;;;;;3.42;1.00;;;18.40;93.60;;;;;;4998651;28;20033;-73
2021/05/29 08:43:53;;;;;;;1.17;0.80;;;18.60;94.20;;;;;;4997254;28;20521;-73
2021/05/29 08:46:19;;;;;;;2.75;1.25;;;18.80;92.20;;;;;;4977809;28;20412;-73
2021/05/29 08:48:45;;;;;;;1.85;1.73;;;19.20;90.50;;;;;;4993825;28;20026;-73
2021/05/29 08:51:14;;;;;;;2.38;1.13;;;19.30;90.80;;;;;;4973832;28;20038;-73
2021/05/29 08:53:48;;;;;;;2.67;1.02;;;19.30;90.00;;;;;;4991621;28;20038;-72
2021/05/29 08:56:16;;;;;;;1.75;1.00;;;19.50;88.80;;;;;;4992008;28;20022;-73
2021/05/29 08:58:42;;;;;;;2.35;1.00;;;19.50;87.60;;;;;;4991294;28;20057;-71
2021/05/29 09:01:09;;;;;;;1.13;1.02;;;19.70;86.70;;;;;;4990741;28;20050;-72
2021/05/29 09:03:38;;;;;;;0.77;0.77;;;20.10;85.70;;;;;;4991308;28;20045;-72
2021/05/29 09:06:04;;;;;;;1.33;0.98;;;19.90;84.00;;;;;;4991723;28;20396;-74
2021/05/29 09:08:29;;;;;;;2.10;1.10;;;19.60;86.50;;;;;;4992286;28;20019;-72
2021/05/29 09:10:58;;;;;;;1.25;1.10;;;20.20;88.10;;;;;;4991239;28;20033;-72
2021/05/29 09:13:29;;;;;;;2.15;0.93;;;21.80;80.70;;;;;;4991703;28;20019;-73
2021/05/29 09:15:58;;;;;;;3.63;1.08;;;22.00;79.90;;;;;;4991554;28;20034;-73
2021/05/29 09:18:31;;;;;;;4.43;0.98;;;22.60;74.70;;;;;;4991423;28;20026;-73
2021/05/29 09:21:30;;;;;;;0.70;0.70;;;22.30;72.20;;;;;;4990982;28;20018;-73
2021/05/29 09:24:04;;;;;;;3.47;0.75;;;21.90;74.00;;;;;;4959985;28;20045;-76
2021/05/29 09:26:47;;;;;;;0.75;0.75;;;21.60;71.00;;;;;;4993053;28;20054;-75
2021/05/29 09:29:22;;;;;;;3.15;0.90;;;21.70;73.30;;;;;;4992311;28;20034;-75
2021/05/29 09:32:07;;;;;;;1.48;1.08;;;21.80;70.40;;;;;;4974523;28;20027;-75
2021/05/29 09:34:38;;;;;;;1.23;0.75;;;21.50;71.10;;;;;;4990775;28;20050;-77
2021/05/29 09:37:05;;;;;;;1.77;1.00;;;21.30;68.80;;;;;;4970616;28;20035;-77
2021/05/29 09:39:31;;;;;;;1.02;0.93;;;21.90;70.90;;;;;;4972076;28;20037;-76
2021/05/29 09:42:00;;;;;;;1.23;0.98;;;23.50;70.30;;;;;;4982034;28;20025;-76
2021/05/29 09:44:28;;;;;;;1.73;1.00;;;23.40;65.90;;;;;;4996807;28;20554;-76
2021/05/29 09:46:56;;;;;;;3.65;1.08;;;22.50;69.60;;;;;;4996680;28;20037;-76
2021/05/29 09:49:51;;;;;;;3.20;1.23;;;21.80;69.60;;;;;;4978092;28;20060;-75
2021/05/29 09:52:27;;;;;;;1.20;1.10;;;21.50;72.50;;;;;;4990981;28;20361;-75
2021/05/29 09:54:59;;;;;;;1.65;1.35;;;21.00;72.50;;;;;;4994249;28;20527;-76
2021/05/29 09:57:25;;;;;;;5.10;1.17;;;21.60;71.50;;;;;;4994150;28;20027;-76
2021/05/29 09:59:54;;;;;;;3.13;0.95;;;21.80;70.40;;;;;;4976004;28;20038;-75
2021/05/29 10:02:19;;;;;;;3.40;1.10;;;21.80;73.00;;;;;;4993961;28;20090;-75
2021/05/29 10:04:52;;;;;;;1.83;1.30;;;21.50;72.80;;;;;;4992866;28;20117;-76
2021/05/29 10:07:17;;;;;;;10.63;1.92;;;21.90;75.40;;;;;;4994583;28;20081;-76
2021/05/29 10:09:44;;;;;;;1.33;1.20;;;22.80;70.40;;;;;;4994939;28;20034;-75
2021/05/29 10:12:10;;;;;;;0.98;0.98;;;22.20;71.00;;;;;;4994791;28;20364;-75
2021/05/29 10:14:36;;;;;;;2.05;1.27;;;22.50;71.40;;;;;;4993866;28;20117;-75
2021/05/29 10:17:07;;;;;;;2.33;1.52;;;22.90;69.20;;;;;;4995370;28;20145;-74
2021/05/29 10:19:34;;;;;;;3.65;1.15;;;21.70;66.10;;;;;;4996580;28;20073;-73
2021/05/29 10:22:15;;;;;;;1.55;0.90;;;20.80;72.60;;;;;;4996232;28;20030;-76
2021/05/29 10:24:42;;;;;;;3.20;1.45;;;20.60;73.10;;;;;;4994957;28;20084;-75
2021/05/29 10:27:14;;;;;;;1.20;1.10;;;20.60;75.00;;;;;;4995766;28;20026;-74
2021/05/29 10:29:41;;;;;;;1.13;0.90;;;20.30;74.70;;;;;;4996120;28;20109;-77
2021/05/29 10:32:18;;;;;;;1.48;1.15;;;20.30;72.60;;;;;;4977302;28;20037;-75
2021/05/29 10:35:06;;;;;;;1.08;0.85;;;20.30;70.10;;;;;;4993406;28;20050;-76
2021/05/29 10:37:36;;;;;;;2.30;1.10;;;20.20;71.20;;;;;;4993534;28;20058;-75
2021/05/29 10:40:42;;;;;;;1.00;1.00;;;20.20;71.70;;;;;;4992900;28;20027;-74
2021/05/29 10:43:14;;;;;;;1.92;1.30;;;20.70;74.10;;;;;;4913880;29;20075;-74
2021/05/29 10:45:52;;;;;;;1.10;1.00;;;20.50;71.10;;;;;;4982492;28;20088;-74
2021/05/29 10:48:24;;;;;;;2.50;1.08;;;19.80;72.20;;;;;;4993264;28;20080;-75
2021/05/29 10:51:09;;;;;;;2.95;1.40;;;19.60;73.00;;;;;;4991594;28;20022;-74
2021/05/29 10:53:43;;;;;;;1.20;1.10;;;20.30;76.00;;;;;;4992362;28;20031;-74
2021/05/29 10:56:24;;;;;;;1.48;1.10;;;21.10;70.50;;;;;;4974939;28;20031;-74
2021/05/29 10:59:18;;;;;;;1.45;1.00;;;21.10;71.10;;;;;;4993174;28;20062;-74
2021/05/29 11:01:48;;;;;;;1.67;1.25;;;21.10;71.60;;;;;;4993071;28;20034;-74
2021/05/29 11:04:23;;;;;;;1.00;1.00;;;20.90;73.30;;;;;;4993051;28;20053;-71
2021/05/29 11:06:58;;;;;;;1.13;1.02;;;20.90;72.20;;;;;;4993138;28;20033;-72
2021/05/29 11:09:30;;;;;;;1.48;1.10;;;20.70;74.20;;;;;;4992863;28;20027;-71
2021/05/29 11:12:00;;;;;;;4.68;1.20;;;20.10;74.20;;;;;;4993333;28;20027;-70
2021/05/29 11:14:30;;;;;;;2.63;1.20;;;19.70;76.20;;;;;;4992908;28;20039;-71
2021/05/29 11:16:57;;;;;;;2.58;1.40;;;20.70;73.70;;;;;;4992424;28;20069;-72
2021/05/29 11:19:33;;;;;;;2.53;1.30;;;21.70;70.40;;;;;;4992624;28;20022;-72
2021/05/29 11:22:12;;;;;;;2.22;1.45;;;22.10;68.90;;;;;;4993497;28;20026;-72
2021/05/29 11:24:50;;;;;;;2.17;1.10;;;22.30;71.80;;;;;;4988754;28;20513;-74
2021/05/29 11:27:34;;;;;;;1.98;1.20;;;22.70;66.90;;;;;;4989706;28;20023;-73
2021/05/29 11:30:14;;;;;;;0.88;0.88;;;22.50;69.90;;;;;;4993536;28;20169;-72
2021/05/29 11:35:50;;;;;;;1.92;1.38;;;21.90;69.90;;;;;;4992511;28;20130;-73
2021/05/29 11:38:29;;;;;;;1.05;0.90;;;22.10;73.50;;;;;;4993081;28;20109;-72
2021/05/29 11:41:00;;;;;;;2.60;1.15;;;22.20;66.80;;;;;;4991654;28;20377;-71
2021/05/29 11:43:39;;;;;;;1.55;1.20;;;21.90;68.70;;;;;;4992968;28;20030;-71
2021/05/29 11:46:20;;;;;;;1.20;0.93;;;22.50;69.50;;;;;;4974667;28;20085;-71
2021/05/29 11:48:54;;;;;;;4.65;1.60;;;23.60;63.80;;;;;;5011565;23;20338;-71
2021/05/29 11:51:21;;;;;;;1.98;1.38;;;23.90;60.40;;;;;;5009565;28;20025;-74
2021/05/29 11:54:05;;;;;;;1.30;1.20;;;23.20;64.80;;;;;;5001799;28;20098;-74
2021/05/29 11:56:40;;;;;;;1.95;1.20;;;22.00;70.60;;;;;;5019160;28;20104;-76
2021/05/29 11:59:09;;;;;;;3.42;1.50;;;21.80;69.80;;;;;;5012499;28;20026;-75
2021/05/29 12:01:45;;;;;;;1.23;1.13;;;21.70;71.10;;;;;;4998850;28;20159;-73
2021/05/29 12:04:12;;;;;;;0.98;0.98;;;23.50;69.20;;;;;;4993320;28;20118;-77
2021/05/29 12:06:41;;;;;;;3.45;1.60;;;25.50;67.10;;;;;;4986069;28;20030;-77
2021/05/29 12:09:10;;;;;;;1.67;1.35;;;26.60;58.50;;;;;;4989747;28;20030;-77
2021/05/29 12:11:38;;;;;;;1.23;0.90;;;27.00;58.10;;;;;;5003632;28;20022;-77
2021/05/29 12:14:05;;;;;;;1.02;0.93;;;27.90;58.80;;;;;;4997790;28;20026;-78
2021/05/29 12:16:34;;;;;;;3.22;1.02;;;27.40;54.40;;;;;;5008921;28;20098;-77
2021/05/29 12:19:01;;;;;;;1.88;1.00;;;26.90;56.70;;;;;;5008123;28;20026;-78
2021/05/29 12:21:50;;;;;;;1.58;1.25;;;26.50;52.70;;;;;;5008410;28;20019;-77
2021/05/29 12:24:18;;;;;;;1.48;0.77;;;25.00;55.40;;;;;;5003177;28;20026;-78
2021/05/29 12:26:46;;;;;;;2.38;1.00;;;23.50;60.30;;;;;;4971191;28;20117;-76
2021/05/29 12:29:13;;;;;;;1.10;1.00;;;22.80;60.90;;;;;;4987961;28;20074;-77
2021/05/29 12:31:51;;;;;;;1.70;1.08;;;21.30;62.70;;;;;;4989723;28;20034;-79
2021/05/29 12:34:17;;;;;;;0.90;0.73;;;21.10;66.50;;;;;;5008908;28;20030;-77
2021/05/29 12:36:57;;;;;;;1.90;1.08;;;21.40;67.10;;;;;;5006706;28;20022;-76
2021/05/29 12:39:42;;;;;;;4.13;1.05;;;21.10;64.60;;;;;;5001628;28;20026;-76
2021/05/29 12:42:33;;;;;;;3.28;0.90;;;20.90;66.10;;;;;;4979269;28;20098;-77
2021/05/29 12:45:03;;;;;;;2.33;1.10;;;22.50;63.40;;;;;;4997373;28;20069;-74
2021/05/29 12:47:31;;;;;;;2.47;0.85;;;23.20;62.60;;;;;;4988916;28;20081;-77
2021/05/29 12:49:58;;;;;;;2.78;0.95;;;23.30;60.20;;;;;;4983579;28;20555;-79
2021/05/29 12:52:25;;;;;;;1.05;1.00;;;22.80;59.70;;;;;;4995962;28;20516;-76
2021/05/29 12:54:52;;;;;;;1.70;0.82;;;23.20;59.10;;;;;;4994617;28;20037;-75
2021/05/29 12:57:18;;;;;;;2.53;0.80;;;23.00;57.60;;;;;;4997653;28;20097;-79
2021/05/29 12:59:44;;;;;;;0.98;0.60;;;23.20;58.00;;;;;;4992856;28;20023;-78
2021/05/29 13:07:40;;;;;;;1.73;0.80;;;21.90;58.80;;;;;;5009065;28;20088;-75
2021/05/29 13:12:39;;;;;;;1.35;0.60;;;21.60;62.40;;;;;;5002276;28;20081;-74
2021/05/29 13:15:18;;;;;;;2.78;1.15;;;20.90;62.30;;;;;;4991974;28;20038;-74